createdAt,value
2024-01-28T00:00:55.041Z,0.79
2024-01-28T00:03:22.194Z,0.77
2024-01-28T00:05:49.079Z,0.66
2024-01-28T00:08:15.721Z,0.59
2024-01-28T00:10:42.368Z,0.55
2024-01-28T00:13:09.405Z,0.49
2024-01-28T00:15:36.105Z,0.41
2024-01-28T00:18:02.984Z,0.39
2024-01-28T00:20:29.686Z,0.38
2024-01-28T00:22:56.248Z,0.44
2024-01-28T00:25:22.781Z,0.46
2024-01-28T00:27:49.336Z,0.44
2024-01-28T00:30:16.109Z,0.35
2024-01-28T00:32:43.295Z,0.35
2024-01-28T00:35:10.161Z,0.32
2024-01-28T00:37:37.589Z,0.25
2024-01-28T00:40:04.950Z,0.24
2024-01-28T00:42:31.794Z,0.19
2024-01-28T00:44:58.438Z,0.12
2024-01-28T00:47:25.008Z,0.09
2024-01-28T00:49:51.876Z,0.04
2024-01-28T00:52:18.826Z,-0.02
2024-01-28T00:54:45.383Z,-0.06
2024-01-28T00:57:12.005Z,-0.07
2024-01-28T00:59:38.718Z,-0.13
2024-01-28T01:02:05.424Z,-0.12
2024-01-28T01:04:32.201Z,-0.19
2024-01-28T01:06:58.841Z,-0.26
2024-01-28T01:09:26.711Z,-0.26
2024-01-28T01:11:53.290Z,-0.14
2024-01-28T01:14:19.836Z,-0.24
2024-01-28T01:16:46.458Z,-0.36
2024-01-28T01:19:13.134Z,-0.50
2024-01-28T01:21:39.857Z,-0.56
2024-01-28T01:24:06.501Z,-0.61
2024-01-28T01:26:33.125Z,-0.68
2024-01-28T01:28:59.667Z,-0.74
2024-01-28T01:31:26.461Z,-0.71
2024-01-28T01:33:53.100Z,-0.81
2024-01-28T01:36:20.917Z,-0.85
2024-01-28T01:38:48.281Z,-0.84
2024-01-28T01:41:15.169Z,-0.87
2024-01-28T01:43:41.743Z,-0.91
2024-01-28T01:46:11.362Z,-0.91
2024-01-28T01:48:39.339Z,-0.95
2024-01-28T01:51:07.934Z,-1.01
2024-01-28T01:53:36.040Z,-1.06
2024-01-28T01:56:03.458Z,-1.16
2024-01-28T01:58:30.890Z,-1.16
2024-01-28T02:00:57.626Z,-1.23
2024-01-28T02:03:24.749Z,-1.28
2024-01-28T02:05:51.462Z,-1.35
2024-01-28T02:08:18.495Z,-1.38
2024-01-28T02:10:46.629Z,-1.39
2024-01-28T02:13:13.412Z,-1.44
2024-01-28T02:15:40.153Z,-1.46
2024-01-28T02:18:07.272Z,-1.43
2024-01-28T02:20:33.949Z,-1.43
2024-01-28T02:23:00.543Z,-1.39
2024-01-28T02:25:27.228Z,-1.38
2024-01-28T02:27:53.848Z,-1.30
2024-01-28T02:30:20.492Z,-1.13
2024-01-28T02:32:50.966Z,-0.72
2024-01-28T02:35:18.131Z,-0.72
2024-01-28T02:37:44.863Z,-0.71
2024-01-28T02:40:11.974Z,-0.80
2024-01-28T02:42:38.632Z,-0.89
2024-01-28T02:45:06.530Z,-0.89
2024-01-28T02:47:33.197Z,-0.91
2024-01-28T02:49:59.776Z,-0.89
2024-01-28T02:52:26.356Z,-0.96
2024-01-28T02:54:52.922Z,-1.02
2024-01-28T02:57:19.585Z,-1.03
2024-01-28T02:59:46.136Z,-1.08
2024-01-28T03:02:12.707Z,-1.09
2024-01-28T03:04:39.401Z,-1.09
2024-01-28T03:07:06.221Z,-0.77
2024-01-28T03:09:32.912Z,-0.84
2024-01-28T03:11:59.497Z,-0.87
2024-01-28T03:14:27.280Z,-0.91
2024-01-28T03:16:54.211Z,-1.01
2024-01-28T03:19:20.861Z,-1.02
2024-01-28T03:21:47.569Z,-0.85
2024-01-28T03:24:14.291Z,-0.74
2024-01-28T03:26:40.901Z,-0.84
2024-01-28T03:29:07.565Z,-0.95
2024-01-28T03:31:34.410Z,-1.03
2024-01-28T03:34:01.151Z,-1.15
2024-01-28T03:36:27.815Z,-1.22
2024-01-28T03:38:55.609Z,-1.29
2024-01-28T03:41:22.709Z,-1.38
2024-01-28T03:43:49.393Z,-1.40
2024-01-28T03:46:16.089Z,-1.43
2024-01-28T03:48:42.835Z,-1.47
2024-01-28T03:51:09.643Z,-1.56
2024-01-28T03:53:36.441Z,-1.60
2024-01-28T03:56:03.662Z,-1.68
2024-01-28T03:58:30.192Z,-1.75
2024-01-28T04:00:56.874Z,-1.83
2024-01-28T04:03:23.549Z,-1.85
2024-01-28T04:05:50.122Z,-1.88
2024-01-28T04:08:16.644Z,-1.92
2024-01-28T04:10:43.175Z,-1.94
2024-01-28T04:13:10.218Z,-1.97
2024-01-28T04:15:36.778Z,-1.90
2024-01-28T04:18:03.542Z,-1.87
2024-01-28T04:20:30.255Z,-1.90
2024-01-28T04:22:56.750Z,-1.94
2024-01-28T04:25:23.618Z,-2.04
2024-01-28T04:27:50.260Z,-2.09
2024-01-28T04:30:16.985Z,-2.09
2024-01-28T04:32:45.368Z,-2.12
2024-01-28T04:35:13.472Z,-2.15
2024-01-28T04:37:41.149Z,-2.19
2024-01-28T04:40:10.461Z,-2.21
2024-01-28T04:42:37.120Z,-2.29
2024-01-28T04:45:04.099Z,-2.31
2024-01-28T04:47:31.038Z,-2.29
2024-01-28T04:49:57.819Z,-2.33
2024-01-28T04:52:24.414Z,-2.32
2024-01-28T04:54:51.089Z,-2.35
2024-01-28T04:57:17.782Z,-2.39
2024-01-28T04:59:44.417Z,-2.41
2024-01-28T05:02:10.987Z,-2.46
2024-01-28T05:04:37.648Z,-2.52
2024-01-28T05:07:04.568Z,-2.53
2024-01-28T05:09:32.249Z,-2.57
2024-01-28T05:11:58.899Z,-2.59
2024-01-28T05:14:25.406Z,-2.62
2024-01-28T05:16:52.041Z,-2.63
2024-01-28T05:19:18.697Z,-2.62
2024-01-28T05:21:45.502Z,-2.63
2024-01-28T05:24:12.263Z,-2.62
2024-01-28T05:26:39.290Z,-2.60
2024-01-28T05:29:06.696Z,-2.52
2024-01-28T05:31:34.303Z,-2.56
2024-01-28T05:34:02.438Z,-2.56
2024-01-28T05:36:30.261Z,-2.53
2024-01-28T05:38:57.050Z,-2.53
2024-01-28T05:41:23.687Z,-2.57
2024-01-28T05:43:50.378Z,-2.64
2024-01-28T05:46:17.017Z,-2.67
2024-01-28T05:48:43.781Z,-2.72
2024-01-28T05:51:10.757Z,-2.77
2024-01-28T05:53:37.305Z,-2.80
2024-01-28T05:56:05.214Z,-2.81
2024-01-28T05:58:31.859Z,-2.79
2024-01-28T06:01:02.844Z,-2.76
2024-01-28T06:03:29.808Z,-2.77
2024-01-28T06:05:56.457Z,-2.76
2024-01-28T06:08:22.940Z,-2.76
2024-01-28T06:10:49.548Z,-2.77
2024-01-28T06:13:16.263Z,-2.79
2024-01-28T06:15:42.973Z,-2.84
2024-01-28T06:18:09.586Z,-2.88
2024-01-28T06:20:36.905Z,-2.87
2024-01-28T06:23:04.264Z,-2.93
2024-01-28T06:25:30.897Z,-2.93
2024-01-28T06:27:57.507Z,-2.91
2024-01-28T06:30:24.171Z,-2.91
2024-01-28T06:32:51.044Z,-2.93
2024-01-28T06:35:18.989Z,-2.87
2024-01-28T06:37:45.767Z,-2.90
2024-01-28T06:40:12.378Z,-2.90
2024-01-28T06:42:39.069Z,-2.90
2024-01-28T06:45:09.034Z,-2.90
2024-01-28T06:47:36.063Z,-2.88
2024-01-28T06:50:03.550Z,-2.88
2024-01-28T06:52:30.357Z,-2.85
2024-01-28T06:54:57.323Z,-2.87
2024-01-28T06:57:23.977Z,-2.91
2024-01-28T06:59:50.603Z,-2.90
2024-01-28T07:02:17.717Z,-2.91
2024-01-28T07:04:44.407Z,-2.85
2024-01-28T07:07:11.025Z,-2.80
2024-01-28T07:09:37.736Z,-2.72
2024-01-28T07:12:05.037Z,-2.67
2024-01-28T07:14:31.733Z,-2.67
2024-01-28T07:16:58.304Z,-2.66
2024-01-28T07:19:24.987Z,-2.59
2024-01-28T07:21:52.844Z,-2.48
2024-01-28T07:24:20.635Z,-2.49
2024-01-28T07:26:47.628Z,-2.48
2024-01-28T07:29:14.286Z,-2.50
2024-01-28T07:31:41.262Z,-2.53
2024-01-28T07:34:08.190Z,-2.49
2024-01-28T07:36:38.618Z,-2.45
2024-01-28T07:39:07.800Z,-2.43
2024-01-28T07:41:37.063Z,-2.41
2024-01-28T07:44:03.922Z,-2.39
2024-01-28T07:46:30.520Z,-2.36
2024-01-28T07:48:57.278Z,-2.33
2024-01-28T07:51:23.957Z,-2.29
2024-01-28T07:53:50.613Z,-2.19
2024-01-28T07:56:17.490Z,-2.16
2024-01-28T07:58:44.115Z,-2.12
2024-01-28T08:01:10.789Z,-2.06
2024-01-28T08:03:37.537Z,-1.99
2024-01-28T08:06:05.822Z,-1.98
2024-01-28T08:08:34.276Z,-1.75
2024-01-28T08:11:00.987Z,-1.61
2024-01-28T08:13:27.573Z,-1.43
2024-01-28T08:16:00.288Z,-1.19
2024-01-28T08:18:27.023Z,-1.01
2024-01-28T08:20:53.643Z,-0.91
2024-01-28T08:23:20.181Z,-0.82
2024-01-28T08:25:47.528Z,-0.75
2024-01-28T08:28:14.313Z,-0.70
2024-01-28T08:30:42.026Z,-0.64
2024-01-28T08:33:08.776Z,-0.58
2024-01-28T08:35:36.201Z,-0.45
2024-01-28T08:38:03.034Z,-0.31
2024-01-28T08:40:29.553Z,-0.10
2024-01-28T08:42:56.795Z,0.08
2024-01-28T08:45:24.054Z,0.19
2024-01-28T08:47:51.112Z,0.28
2024-01-28T08:50:20.457Z,0.25
2024-01-28T08:52:47.049Z,0.25
2024-01-28T08:55:13.577Z,0.28
2024-01-28T08:57:40.785Z,0.42
2024-01-28T09:00:12.960Z,0.50
2024-01-28T09:02:40.329Z,0.62
2024-01-28T09:05:09.174Z,0.73
2024-01-28T09:07:35.861Z,0.69
2024-01-28T09:10:02.955Z,0.68
2024-01-28T09:12:29.900Z,0.73
2024-01-28T09:14:56.475Z,0.79
2024-01-28T09:17:23.050Z,0.81
2024-01-28T09:19:49.839Z,0.86
2024-01-28T09:22:16.430Z,0.94
2024-01-28T09:24:43.662Z,1.07
2024-01-28T09:27:11.456Z,1.16
2024-01-28T09:29:39.248Z,1.34
2024-01-28T09:32:06.076Z,1.51
2024-01-28T09:34:32.789Z,1.83
2024-01-28T09:36:59.542Z,2.52
2024-01-28T09:39:26.584Z,2.93
2024-01-28T09:42:04.106Z,3.08
2024-01-28T09:44:30.731Z,3.47
2024-01-28T09:46:57.394Z,4.09
2024-01-28T09:49:25.831Z,5.01
2024-01-28T09:51:52.721Z,5.34
2024-01-28T09:54:19.391Z,5.05
2024-01-28T09:56:47.257Z,4.71
2024-01-28T09:59:14.533Z,4.59
2024-01-28T10:01:43.806Z,4.48
2024-01-28T10:04:13.337Z,5.21
2024-01-28T10:06:40.031Z,6.68
2024-01-28T10:09:06.809Z,7.91
2024-01-28T10:11:34.331Z,9.16
2024-01-28T10:14:00.864Z,10.20
2024-01-28T10:16:31.587Z,10.95
2024-01-28T10:18:58.290Z,11.22
2024-01-28T10:21:25.986Z,10.40
2024-01-28T10:23:52.635Z,9.53
2024-01-28T10:26:21.000Z,8.71
2024-01-28T10:28:47.737Z,7.92
2024-01-28T10:31:14.325Z,7.26
2024-01-28T10:33:41.111Z,6.91
2024-01-28T10:36:10.588Z,6.51
2024-01-28T10:38:43.585Z,6.30
2024-01-28T10:41:15.209Z,6.24
2024-01-28T10:43:49.518Z,6.14
2024-01-28T10:46:20.257Z,6.09
2024-01-28T10:48:52.290Z,6.24
2024-01-28T10:51:20.245Z,6.28
2024-01-28T10:53:47.833Z,6.21
2024-01-28T10:56:14.768Z,6.23
2024-01-28T10:58:41.471Z,6.32
2024-01-28T11:01:08.581Z,6.40
2024-01-28T11:03:35.729Z,6.56
2024-01-28T11:06:02.592Z,6.64
2024-01-28T11:08:29.221Z,6.93
2024-01-28T11:10:55.984Z,6.95
2024-01-28T11:13:22.508Z,6.99
2024-01-28T11:15:49.232Z,7.10
2024-01-28T11:18:17.045Z,6.97
2024-01-28T11:20:43.751Z,6.86
2024-01-28T11:23:17.498Z,6.73
2024-01-28T11:25:45.970Z,6.76
2024-01-28T11:28:14.642Z,6.68
2024-01-28T11:30:41.985Z,6.64
2024-01-28T11:33:12.790Z,6.69
2024-01-28T11:35:44.579Z,6.67
2024-01-28T11:38:15.930Z,6.71
2024-01-28T11:40:48.414Z,7.07
2024-01-28T11:43:14.967Z,7.03
2024-01-28T11:45:41.988Z,7.07
2024-01-28T11:48:10.622Z,7.14
2024-01-28T11:50:37.664Z,7.24
2024-01-28T11:53:07.010Z,7.46
2024-01-28T11:55:36.063Z,7.77
2024-01-28T11:58:02.949Z,7.79
2024-01-28T12:00:29.605Z,7.71
2024-01-28T12:02:56.289Z,7.57
2024-01-28T12:05:23.206Z,7.51
2024-01-28T12:07:51.090Z,7.53
2024-01-28T12:10:18.305Z,7.51
2024-01-28T12:12:45.188Z,7.41
2024-01-28T12:15:14.471Z,7.61
2024-01-28T12:17:43.650Z,7.82
2024-01-28T12:20:20.833Z,7.88
2024-01-28T12:22:47.376Z,7.94
2024-01-28T12:25:19.435Z,8.23
2024-01-28T12:27:46.156Z,8.67
2024-01-28T12:30:13.896Z,8.83
2024-01-28T12:32:40.878Z,8.89
2024-01-28T12:35:10.358Z,9.29
2024-01-28T12:37:39.841Z,9.76
2024-01-28T12:40:07.805Z,9.62
2024-01-28T12:42:39.464Z,9.72
2024-01-28T12:45:06.457Z,9.89
2024-01-28T12:47:33.083Z,10.15
2024-01-28T12:49:59.807Z,10.45
2024-01-28T12:52:26.465Z,10.66
2024-01-28T12:54:53.284Z,10.82
2024-01-28T12:57:19.940Z,10.65
2024-01-28T12:59:46.527Z,10.45
2024-01-28T13:02:13.382Z,10.21
2024-01-28T13:04:40.343Z,9.90
2024-01-28T13:07:07.759Z,9.63
2024-01-28T13:09:34.571Z,9.53
2024-01-28T13:12:01.725Z,9.45
2024-01-28T13:14:28.440Z,9.50
2024-01-28T13:16:55.230Z,9.69
2024-01-28T13:19:21.858Z,9.86
2024-01-28T13:21:48.650Z,9.91
2024-01-28T13:24:15.509Z,10.04
2024-01-28T13:26:42.222Z,10.31
2024-01-28T13:29:09.199Z,10.62
2024-01-28T13:31:36.482Z,10.83
2024-01-28T13:34:03.858Z,10.99
2024-01-28T13:36:30.687Z,10.88
2024-01-28T13:38:57.303Z,10.85
2024-01-28T13:41:23.905Z,10.72
2024-01-28T13:43:50.410Z,11.02
2024-01-28T13:46:17.010Z,11.41
2024-01-28T13:48:43.847Z,11.44
2024-01-28T13:51:10.579Z,11.41
2024-01-28T13:53:38.051Z,11.41
2024-01-28T13:56:07.496Z,11.70
2024-01-28T13:58:34.311Z,12.08
2024-01-28T14:01:01.188Z,12.43
2024-01-28T14:03:27.881Z,12.42
2024-01-28T14:05:54.499Z,12.61
2024-01-28T14:08:22.580Z,12.32
2024-01-28T14:10:49.269Z,12.42
2024-01-28T14:13:15.866Z,12.12
2024-01-28T14:15:42.443Z,11.70
2024-01-28T14:18:09.165Z,11.22
2024-01-28T14:20:35.756Z,11.27
2024-01-28T14:23:02.610Z,10.96
2024-01-28T14:25:29.169Z,10.59
2024-01-28T14:27:55.816Z,10.52
2024-01-28T14:30:22.444Z,9.70
2024-01-28T14:32:49.428Z,9.33
2024-01-28T14:35:16.889Z,9.00
2024-01-28T14:37:43.814Z,8.61
2024-01-28T14:40:10.755Z,8.44
2024-01-28T14:42:37.479Z,8.25
2024-01-28T14:45:04.779Z,8.12
2024-01-28T14:47:31.567Z,7.96
2024-01-28T14:49:58.642Z,7.78
2024-01-28T14:52:25.344Z,7.65
2024-01-28T14:54:51.974Z,7.57
2024-01-28T14:57:19.325Z,7.43
2024-01-28T14:59:45.955Z,7.34
2024-01-28T15:02:12.503Z,7.28
2024-01-28T15:04:39.094Z,7.16
2024-01-28T15:07:06.164Z,7.07
2024-01-28T15:09:33.014Z,6.88
2024-01-28T15:11:59.584Z,6.73
2024-01-28T15:14:26.115Z,6.52
2024-01-28T15:16:52.991Z,6.35
2024-01-28T15:19:19.896Z,6.23
2024-01-28T15:21:46.703Z,6.16
2024-01-28T15:24:13.386Z,6.16
2024-01-28T15:26:41.482Z,6.11
2024-01-28T15:29:08.091Z,6.00
2024-01-28T15:31:34.970Z,5.93
2024-01-28T15:34:01.790Z,5.89
2024-01-28T15:36:29.212Z,5.90
2024-01-28T15:38:55.769Z,5.93
2024-01-28T15:41:22.840Z,5.82
2024-01-28T15:43:49.491Z,5.72
2024-01-28T15:46:16.104Z,5.67
2024-01-28T15:48:43.099Z,5.59
2024-01-28T15:51:09.852Z,5.46
2024-01-28T15:53:36.440Z,5.34
2024-01-28T15:56:03.241Z,5.21
2024-01-28T15:58:30.060Z,5.17
2024-01-28T16:00:56.647Z,5.04
2024-01-28T16:03:23.671Z,5.05
2024-01-28T16:05:50.715Z,4.98
2024-01-28T16:08:17.536Z,4.90
2024-01-28T16:10:44.214Z,4.87
2024-01-28T16:13:10.821Z,4.73
2024-01-28T16:15:37.829Z,4.63
2024-01-28T16:18:06.088Z,4.46
2024-01-28T16:20:32.694Z,4.26
2024-01-28T16:23:01.988Z,4.12
2024-01-28T16:25:30.904Z,4.06
2024-01-28T16:28:02.072Z,4.09
2024-01-28T16:30:29.285Z,4.12
2024-01-28T16:32:56.049Z,4.25
2024-01-28T16:35:22.966Z,4.26
2024-01-28T16:37:51.059Z,4.19
2024-01-28T16:40:17.901Z,4.12
2024-01-28T16:42:45.443Z,4.01
2024-01-28T16:45:15.499Z,3.92
2024-01-28T16:47:46.946Z,3.82
2024-01-28T16:50:14.057Z,3.77
2024-01-28T16:52:41.627Z,3.64
2024-01-28T16:55:09.240Z,3.51
2024-01-28T16:57:36.500Z,3.37
2024-01-28T17:00:04.624Z,3.27
2024-01-28T17:02:31.250Z,3.22
2024-01-28T17:04:59.295Z,3.19
2024-01-28T17:07:27.310Z,3.20
2024-01-28T17:09:54.045Z,3.26
2024-01-28T17:12:20.745Z,3.20
2024-01-28T17:14:47.395Z,3.16
2024-01-28T17:17:14.405Z,3.15
2024-01-28T17:19:41.104Z,3.18
2024-01-28T17:22:07.849Z,3.18
2024-01-28T17:24:35.237Z,3.20
2024-01-28T17:27:01.934Z,3.20
2024-01-28T17:29:29.592Z,3.24
2024-01-28T17:31:56.210Z,3.22
2024-01-28T17:34:23.385Z,3.09
2024-01-28T17:36:50.424Z,3.12
2024-01-28T17:39:17.726Z,3.18
2024-01-28T17:41:44.459Z,3.15
2024-01-28T17:44:11.129Z,3.08
2024-01-28T17:46:37.727Z,3.02
2024-01-28T17:49:05.106Z,2.89
2024-01-28T17:51:32.463Z,2.78
2024-01-28T17:54:00.171Z,2.70
2024-01-28T17:56:27.896Z,2.62
2024-01-28T17:58:54.722Z,2.64
2024-01-28T18:01:22.904Z,2.57
2024-01-28T18:03:49.620Z,2.52
2024-01-28T18:06:16.690Z,2.60
2024-01-28T18:08:43.319Z,2.64
2024-01-28T18:11:09.886Z,2.68
2024-01-28T18:13:38.910Z,2.77
2024-01-28T18:16:06.353Z,2.82
2024-01-28T18:18:36.254Z,2.88
2024-01-28T18:21:04.077Z,2.89
2024-01-28T18:23:30.656Z,2.89
2024-01-28T18:25:57.826Z,2.85
2024-01-28T18:28:24.385Z,2.66
2024-01-28T18:30:52.312Z,2.58
2024-01-28T18:33:19.356Z,2.57
2024-01-28T18:35:47.646Z,2.62
2024-01-28T18:38:14.249Z,2.61
2024-01-28T18:40:40.798Z,2.55
2024-01-28T18:43:09.356Z,2.62
2024-01-28T18:45:41.208Z,2.71
2024-01-28T18:48:08.142Z,2.65
2024-01-28T18:50:46.258Z,2.58
2024-01-28T18:53:16.110Z,2.48
2024-01-28T18:55:45.090Z,2.60
2024-01-28T18:58:18.183Z,2.58
2024-01-28T19:00:47.025Z,2.52
2024-01-28T19:03:14.030Z,2.42
2024-01-28T19:05:44.075Z,2.37
2024-01-28T19:08:11.415Z,2.40
2024-01-28T19:10:38.253Z,2.41
2024-01-28T19:13:05.185Z,2.47
2024-01-28T19:15:31.839Z,2.42
2024-01-28T19:17:59.435Z,2.34
2024-01-28T19:20:26.567Z,2.34
2024-01-28T19:22:54.551Z,2.34
2024-01-28T19:25:21.212Z,2.30
2024-01-28T19:27:48.764Z,2.26
2024-01-28T19:30:15.612Z,2.30
2024-01-28T19:32:42.227Z,2.45
2024-01-28T19:35:10.262Z,2.42
2024-01-28T19:37:37.342Z,2.36
2024-01-28T19:40:04.394Z,2.44
2024-01-28T19:42:33.067Z,2.58
2024-01-28T19:44:59.908Z,2.70
2024-01-28T19:47:26.613Z,2.64
2024-01-28T19:49:53.475Z,2.60
2024-01-28T19:52:20.117Z,2.47
2024-01-28T19:54:46.761Z,2.45
2024-01-28T19:57:13.585Z,2.45
2024-01-28T19:59:40.129Z,2.37
2024-01-28T20:02:06.720Z,2.41
2024-01-28T20:04:34.430Z,2.51
2024-01-28T20:07:01.955Z,2.37
2024-01-28T20:09:28.633Z,2.21
2024-01-28T20:11:55.303Z,2.13
2024-01-28T20:14:22.122Z,2.16
2024-01-28T20:16:48.735Z,2.11
2024-01-28T20:19:18.532Z,2.05
2024-01-28T20:21:45.246Z,2.16
2024-01-28T20:24:11.952Z,2.29
2024-01-28T20:26:38.457Z,2.27
2024-01-28T20:29:05.148Z,2.24
2024-01-28T20:31:31.793Z,2.23
2024-01-28T20:33:58.522Z,2.24
2024-01-28T20:36:26.454Z,2.24
2024-01-28T20:38:53.451Z,2.20
2024-01-28T20:41:21.359Z,2.13
2024-01-28T20:43:48.032Z,2.11
2024-01-28T20:46:14.641Z,2.06
2024-01-28T20:48:45.872Z,2.06
2024-01-28T20:51:12.521Z,2.06
2024-01-28T20:53:39.149Z,2.05
2024-01-28T20:56:09.252Z,2.00
2024-01-28T20:58:35.806Z,1.98
2024-01-28T21:01:02.642Z,2.07
2024-01-28T21:03:29.773Z,2.10
2024-01-28T21:05:56.414Z,2.07
2024-01-28T21:08:23.888Z,2.03
2024-01-28T21:10:50.515Z,1.99
2024-01-28T21:13:17.205Z,2.05
2024-01-28T21:15:43.842Z,1.98
2024-01-28T21:18:10.622Z,1.87
2024-01-28T21:20:39.749Z,1.93
2024-01-28T21:23:06.982Z,1.89
2024-01-28T21:25:33.572Z,1.83
2024-01-28T21:28:00.278Z,1.75
2024-01-28T21:30:27.014Z,1.68
2024-01-28T21:32:53.823Z,1.62
2024-01-28T21:35:20.517Z,1.56
2024-01-28T21:37:47.311Z,1.54
2024-01-28T21:40:14.045Z,1.49
2024-01-28T21:42:40.641Z,1.51
2024-01-28T21:45:07.406Z,1.54
2024-01-28T21:47:34.637Z,1.63
2024-01-28T21:50:01.482Z,1.68
2024-01-28T21:52:28.231Z,1.76
2024-01-28T21:54:54.839Z,1.75
2024-01-28T21:57:21.419Z,1.89
2024-01-28T21:59:48.032Z,1.80
2024-01-28T22:02:15.415Z,1.82
2024-01-28T22:04:42.190Z,1.76
2024-01-28T22:07:08.922Z,1.73
2024-01-28T22:09:35.581Z,1.69
2024-01-28T22:12:04.258Z,1.56
2024-01-28T22:14:32.827Z,1.47
2024-01-28T22:16:59.417Z,1.42
2024-01-28T22:19:26.010Z,1.47
2024-01-28T22:21:52.553Z,1.44
2024-01-28T22:24:19.177Z,1.42
2024-01-28T22:26:45.862Z,1.42
2024-01-28T22:29:12.554Z,1.45
2024-01-28T22:31:39.751Z,1.55
2024-01-28T22:34:06.387Z,1.59
2024-01-28T22:36:33.104Z,1.59
2024-01-28T22:38:59.683Z,1.61
2024-01-28T22:41:26.494Z,1.61
2024-01-28T22:43:53.146Z,1.54
2024-01-28T22:46:19.771Z,1.51
2024-01-28T22:48:46.508Z,1.45
2024-01-28T22:51:13.777Z,1.38
2024-01-28T22:53:40.326Z,1.35
2024-01-28T22:56:07.151Z,1.38
2024-01-28T22:58:33.680Z,1.40
2024-01-28T23:01:04.537Z,1.44
2024-01-28T23:03:31.526Z,1.38
2024-01-28T23:05:58.477Z,1.38
2024-01-28T23:08:25.333Z,1.26
2024-01-28T23:10:51.870Z,1.16
2024-01-28T23:13:18.529Z,1.05
2024-01-28T23:15:45.060Z,1.01
2024-01-28T23:18:11.998Z,0.91
2024-01-28T23:20:39.042Z,0.87
2024-01-28T23:23:05.765Z,0.77
2024-01-28T23:25:32.301Z,0.73
2024-01-28T23:27:59.225Z,0.76
2024-01-28T23:30:25.879Z,0.72
2024-01-28T23:32:52.494Z,0.75
2024-01-28T23:35:19.116Z,0.70
2024-01-28T23:37:45.678Z,0.68
2024-01-28T23:40:12.817Z,0.66
2024-01-28T23:42:39.732Z,0.62
2024-01-28T23:45:10.476Z,0.62
2024-01-28T23:47:37.170Z,0.62
2024-01-28T23:50:04.052Z,0.56
2024-01-28T23:52:30.577Z,0.53
2024-01-28T23:54:57.451Z,0.52
2024-01-28T23:57:24.375Z,0.56
2024-01-28T23:59:51.088Z,0.58
